sensor_id;sensor_type;location;lat;lon;timestamp;P1;durP1;ratioP1;P2;durP2;ratioP2
12768;SDS011;6448;48.916;8.990;2022-07-31T00:01:00;1.20;;;1.10;;
12768;SDS011;6448;48.916;8.990;2022-07-31T00:02:00;1.33;;;1.10;;
12768;SDS011;6448;48.916;8.990;2022-07-31T00:03:02;1.10;;;1.10;;
12768;SDS011;6448;48.916;8.990;2022-07-31T00:04:04;1.38;;;1.15;;
12768;SDS011;6448;48.916;8.990;2022-07-31T00:05:05;1.10;;;1.00;;
12768;SDS011;6448;48.916;8.990;2022-07-31T00:06:07;1.10;;;1.00;;
12768;SDS011;6448;48.916;8.990;2022-07-31T00:07:10;1.20;;;1.10;;
12768;SDS011;6448;48.916;8.990;2022-07-31T00:08:11;1.17;;;1.07;;
12768;SDS011;6448;48.916;8.990;2022-07-31T00:09:12;1.20;;;1.10;;
12768;SDS011;6448;48.916;8.990;2022-07-31T00:10:14;1.20;;;1.10;;
12768;SDS011;6448;48.916;8.990;2022-07-31T00:11:15;1.23;;;1.13;;
12768;SDS011;6448;48.916;8.990;2022-07-31T00:12:17;1.30;;;1.10;;
12768;SDS011;6448;48.916;8.990;2022-07-31T00:13:17;1.05;;;1.05;;
12768;SDS011;6448;48.916;8.990;2022-07-31T00:14:19;1.20;;;1.10;;
12768;SDS011;6448;48.916;8.990;2022-07-31T00:15:20;1.30;;;1.20;;
12768;SDS011;6448;48.916;8.990;2022-07-31T00:16:22;1.10;;;1.00;;
12768;SDS011;6448;48.916;8.990;2022-07-31T00:17:23;1.20;;;1.10;;
12768;SDS011;6448;48.916;8.990;2022-07-31T00:18:24;1.00;;;1.00;;
12768;SDS011;6448;48.916;8.990;2022-07-31T00:19:25;1.42;;;1.20;;
12768;SDS011;6448;48.916;8.990;2022-07-31T00:20:27;1.23;;;1.13;;
12768;SDS011;6448;48.916;8.990;2022-07-31T00:21:27;1.08;;;1.00;;
12768;SDS011;6448;48.916;8.990;2022-07-31T00:22:31;1.23;;;1.13;;
12768;SDS011;6448;48.916;8.990;2022-07-31T00:23:32;1.30;;;1.20;;
12768;SDS011;6448;48.916;8.990;2022-07-31T00:24:33;1.23;;;1.10;;
12768;SDS011;6448;48.916;8.990;2022-07-31T00:25:34;1.10;;;1.10;;
12768;SDS011;6448;48.916;8.990;2022-07-31T00:26:36;1.13;;;1.05;;
12768;SDS011;6448;48.916;8.990;2022-07-31T00:27:37;1.20;;;1.10;;
12768;SDS011;6448;48.916;8.990;2022-07-31T00:28:39;1.27;;;1.10;;
12768;SDS011;6448;48.916;8.990;2022-07-31T00:29:40;1.33;;;1.20;;
12768;SDS011;6448;48.916;8.990;2022-07-31T00:30:41;1.20;;;1.10;;
12768;SDS011;6448;48.916;8.990;2022-07-31T00:31:42;1.13;;;1.03;;
12768;SDS011;6448;48.916;8.990;2022-07-31T00:32:44;1.20;;;1.10;;
12768;SDS011;6448;48.916;8.990;2022-07-31T00:33:45;1.25;;;1.15;;
12768;SDS011;6448;48.916;8.990;2022-07-31T00:34:47;1.20;;;1.10;;
12768;SDS011;6448;48.916;8.990;2022-07-31T00:35:47;1.20;;;1.10;;
12768;SDS011;6448;48.916;8.990;2022-07-31T00:36:49;1.05;;;1.02;;
12768;SDS011;6448;48.916;8.990;2022-07-31T00:37:52;1.45;;;1.10;;
12768;SDS011;6448;48.916;8.990;2022-07-31T00:38:54;1.20;;;1.10;;
12768;SDS011;6448;48.916;8.990;2022-07-31T00:39:54;1.30;;;1.20;;
12768;SDS011;6448;48.916;8.990;2022-07-31T00:40:56;1.20;;;1.10;;
12768;SDS011;6448;48.916;8.990;2022-07-31T00:41:58;1.10;;;1.00;;
12768;SDS011;6448;48.916;8.990;2022-07-31T00:43:01;1.35;;;1.10;;
12768;SDS011;6448;48.916;8.990;2022-07-31T00:44:02;1.08;;;1.05;;
12768;SDS011;6448;48.916;8.990;2022-07-31T00:45:05;1.15;;;1.05;;
12768;SDS011;6448;48.916;8.990;2022-07-31T00:46:06;1.17;;;1.08;;
12768;SDS011;6448;48.916;8.990;2022-07-31T00:47:08;1.17;;;1.10;;
12768;SDS011;6448;48.916;8.990;2022-07-31T00:48:10;1.30;;;1.20;;
12768;SDS011;6448;48.916;8.990;2022-07-31T00:49:11;1.30;;;1.20;;
12768;SDS011;6448;48.916;8.990;2022-07-31T00:50:12;1.20;;;1.10;;
12768;SDS011;6448;48.916;8.990;2022-07-31T00:51:15;1.20;;;1.10;;
12768;SDS011;6448;48.916;8.990;2022-07-31T00:52:16;1.20;;;1.10;;
12768;SDS011;6448;48.916;8.990;2022-07-31T00:53:19;1.30;;;1.20;;
12768;SDS011;6448;48.916;8.990;2022-07-31T00:54:20;1.20;;;1.10;;
12768;SDS011;6448;48.916;8.990;2022-07-31T00:55:21;1.27;;;1.17;;
12768;SDS011;6448;48.916;8.990;2022-07-31T00:56:22;1.23;;;1.13;;
12768;SDS011;6448;48.916;8.990;2022-07-31T00:57:25;1.10;;;1.00;;
12768;SDS011;6448;48.916;8.990;2022-07-31T00:58:26;1.43;;;1.20;;
12768;SDS011;6448;48.916;8.990;2022-07-31T00:59:28;1.08;;;1.05;;
12768;SDS011;6448;48.916;8.990;2022-07-31T01:00:29;1.17;;;1.08;;
12768;SDS011;6448;48.916;8.990;2022-07-31T01:01:31;1.17;;;1.08;;
12768;SDS011;6448;48.916;8.990;2022-07-31T01:02:32;1.13;;;1.10;;
12768;SDS011;6448;48.916;8.990;2022-07-31T01:03:34;1.20;;;1.10;;
12768;SDS011;6448;48.916;8.990;2022-07-31T01:04:34;1.30;;;1.20;;
12768;SDS011;6448;48.916;8.990;2022-07-31T01:05:36;1.20;;;1.10;;
12768;SDS011;6448;48.916;8.990;2022-07-31T01:06:37;1.40;;;1.00;;
12768;SDS011;6448;48.916;8.990;2022-07-31T01:07:39;1.20;;;1.10;;
12768;SDS011;6448;48.916;8.990;2022-07-31T01:08:41;1.00;;;1.00;;
12768;SDS011;6448;48.916;8.990;2022-07-31T01:09:43;1.20;;;1.10;;
12768;SDS011;6448;48.916;8.990;2022-07-31T01:10:54;1.23;;;1.13;;
12768;SDS011;6448;48.916;8.990;2022-07-31T01:11:59;1.30;;;1.20;;
12768;SDS011;6448;48.916;8.990;2022-07-31T01:13:06;1.20;;;1.10;;
12768;SDS011;6448;48.916;8.990;2022-07-31T01:14:13;1.20;;;1.10;;
12768;SDS011;6448;48.916;8.990;2022-07-31T01:15:17;1.10;;;1.00;;
12768;SDS011;6448;48.916;8.990;2022-07-31T01:16:21;1.30;;;1.20;;
12768;SDS011;6448;48.916;8.990;2022-07-31T01:17:24;1.27;;;1.17;;
12768;SDS011;6448;48.916;8.990;2022-07-31T01:18:27;1.30;;;1.20;;
12768;SDS011;6448;48.916;8.990;2022-07-31T01:19:34;1.30;;;1.20;;
12768;SDS011;6448;48.916;8.990;2022-07-31T01:20:40;1.13;;;1.10;;
12768;SDS011;6448;48.916;8.990;2022-07-31T01:21:47;1.73;;;1.20;;
12768;SDS011;6448;48.916;8.990;2022-07-31T01:22:56;1.10;;;1.10;;
12768;SDS011;6448;48.916;8.990;2022-07-31T01:24:28;1.33;;;1.23;;
12768;SDS011;6448;48.916;8.990;2022-07-31T01:25:57;1.17;;;1.08;;
12768;SDS011;6448;48.916;8.990;2022-07-31T01:27:15;1.25;;;1.15;;
12768;SDS011;6448;48.916;8.990;2022-07-31T01:29:52;1.20;;;1.10;;
12768;SDS011;6448;48.916;8.990;2022-07-31T01:30:58;1.20;;;1.10;;
12768;SDS011;6448;48.916;8.990;2022-07-31T01:32:05;1.50;;;1.20;;
12768;SDS011;6448;48.916;8.990;2022-07-31T01:33:11;1.40;;;1.30;;
12768;SDS011;6448;48.916;8.990;2022-07-31T01:34:18;1.50;;;1.30;;
12768;SDS011;6448;48.916;8.990;2022-07-31T01:35:30;1.20;;;1.10;;
12768;SDS011;6448;48.916;8.990;2022-07-31T01:36:35;1.15;;;1.10;;
12768;SDS011;6448;48.916;8.990;2022-07-31T01:37:41;1.30;;;1.20;;
12768;SDS011;6448;48.916;8.990;2022-07-31T01:38:46;1.45;;;1.20;;
12768;SDS011;6448;48.916;8.990;2022-07-31T01:39:53;1.30;;;1.20;;
12768;SDS011;6448;48.916;8.990;2022-07-31T01:41:00;1.20;;;1.10;;
12768;SDS011;6448;48.916;8.990;2022-07-31T01:42:04;1.20;;;1.10;;
12768;SDS011;6448;48.916;8.990;2022-07-31T01:43:09;1.30;;;1.20;;
12768;SDS011;6448;48.916;8.990;2022-07-31T01:44:14;1.20;;;1.10;;
12768;SDS011;6448;48.916;8.990;2022-07-31T01:45:19;1.30;;;1.20;;
12768;SDS011;6448;48.916;8.990;2022-07-31T01:46:24;1.30;;;1.20;;
12768;SDS011;6448;48.916;8.990;2022-07-31T01:47:28;1.40;;;1.30;;
12768;SDS011;6448;48.916;8.990;2022-07-31T01:48:32;1.27;;;1.17;;
12768;SDS011;6448;48.916;8.990;2022-07-31T01:49:34;1.08;;;1.08;;
12768;SDS011;6448;48.916;8.990;2022-07-31T01:50:37;1.20;;;1.10;;
12768;SDS011;6448;48.916;8.990;2022-07-31T01:51:41;1.27;;;1.17;;
12768;SDS011;6448;48.916;8.990;2022-07-31T01:52:44;1.20;;;1.10;;
12768;SDS011;6448;48.916;8.990;2022-07-31T01:53:46;1.40;;;1.30;;
12768;SDS011;6448;48.916;8.990;2022-07-31T01:54:50;1.27;;;1.10;;
12768;SDS011;6448;48.916;8.990;2022-07-31T01:55:54;1.20;;;1.10;;
12768;SDS011;6448;48.916;8.990;2022-07-31T01:56:56;1.30;;;1.20;;
12768;SDS011;6448;48.916;8.990;2022-07-31T01:58:00;1.37;;;1.10;;
12768;SDS011;6448;48.916;8.990;2022-07-31T01:59:04;1.25;;;1.15;;
12768;SDS011;6448;48.916;8.990;2022-07-31T02:00:14;1.20;;;1.10;;
12768;SDS011;6448;48.916;8.990;2022-07-31T02:01:22;1.30;;;1.20;;
12768;SDS011;6448;48.916;8.990;2022-07-31T02:02:24;1.30;;;1.20;;
12768;SDS011;6448;48.916;8.990;2022-07-31T02:03:28;1.20;;;1.10;;
12768;SDS011;6448;48.916;8.990;2022-07-31T02:04:30;1.40;;;1.30;;
12768;SDS011;6448;48.916;8.990;2022-07-31T02:05:33;1.40;;;1.10;;
12768;SDS011;6448;48.916;8.990;2022-07-31T02:06:35;1.20;;;1.10;;
12768;SDS011;6448;48.916;8.990;2022-07-31T02:07:39;1.13;;;1.05;;
12768;SDS011;6448;48.916;8.990;2022-07-31T02:08:43;1.50;;;1.20;;
12768;SDS011;6448;48.916;8.990;2022-07-31T02:09:47;1.27;;;1.17;;
12768;SDS011;6448;48.916;8.990;2022-07-31T02:10:49;1.17;;;1.10;;
12768;SDS011;6448;48.916;8.990;2022-07-31T02:11:52;1.23;;;1.13;;
12768;SDS011;6448;48.916;8.990;2022-07-31T02:12:55;1.35;;;1.20;;
12768;SDS011;6448;48.916;8.990;2022-07-31T02:13:58;1.13;;;1.08;;
12768;SDS011;6448;48.916;8.990;2022-07-31T02:15:05;1.20;;;1.10;;
12768;SDS011;6448;48.916;8.990;2022-07-31T02:16:09;1.63;;;1.20;;
12768;SDS011;6448;48.916;8.990;2022-07-31T02:17:12;1.27;;;1.17;;
12768;SDS011;6448;48.916;8.990;2022-07-31T02:18:33;1.20;;;1.10;;
12768;SDS011;6448;48.916;8.990;2022-07-31T02:19:53;1.27;;;1.17;;
12768;SDS011;6448;48.916;8.990;2022-07-31T02:20:59;1.20;;;1.10;;
12768;SDS011;6448;48.916;8.990;2022-07-31T02:21:59;1.30;;;1.20;;
12768;SDS011;6448;48.916;8.990;2022-07-31T02:23:01;1.25;;;1.10;;
12768;SDS011;6448;48.916;8.990;2022-07-31T02:24:02;1.30;;;1.20;;
12768;SDS011;6448;48.916;8.990;2022-07-31T02:25:05;1.65;;;1.30;;
12768;SDS011;6448;48.916;8.990;2022-07-31T02:26:08;1.30;;;1.20;;
12768;SDS011;6448;48.916;8.990;2022-07-31T02:27:10;1.30;;;1.20;;
12768;SDS011;6448;48.916;8.990;2022-07-31T02:28:14;1.30;;;1.20;;
12768;SDS011;6448;48.916;8.990;2022-07-31T02:29:20;1.40;;;1.10;;
12768;SDS011;6448;48.916;8.990;2022-07-31T02:30:22;1.30;;;1.20;;
12768;SDS011;6448;48.916;8.990;2022-07-31T02:31:27;1.30;;;1.20;;
12768;SDS011;6448;48.916;8.990;2022-07-31T02:32:33;1.10;;;1.10;;
12768;SDS011;6448;48.916;8.990;2022-07-31T02:33:36;1.40;;;1.30;;
12768;SDS011;6448;48.916;8.990;2022-07-31T02:34:39;1.20;;;1.10;;
12768;SDS011;6448;48.916;8.990;2022-07-31T02:35:42;1.20;;;1.10;;
12768;SDS011;6448;48.916;8.990;2022-07-31T02:36:49;1.30;;;1.20;;
12768;SDS011;6448;48.916;8.990;2022-07-31T02:37:53;1.27;;;1.17;;
12768;SDS011;6448;48.916;8.990;2022-07-31T02:38:55;1.30;;;1.20;;
12768;SDS011;6448;48.916;8.990;2022-07-31T02:39:58;1.40;;;1.30;;
12768;SDS011;6448;48.916;8.990;2022-07-31T02:41:01;1.10;;;1.10;;
12768;SDS011;6448;48.916;8.990;2022-07-31T02:42:04;1.20;;;1.10;;
12768;SDS011;6448;48.916;8.990;2022-07-31T02:43:06;1.33;;;1.23;;
12768;SDS011;6448;48.916;8.990;2022-07-31T02:44:10;1.30;;;1.20;;
12768;SDS011;6448;48.916;8.990;2022-07-31T02:45:11;1.10;;;1.10;;
12768;SDS011;6448;48.916;8.990;2022-07-31T02:46:15;1.23;;;1.13;;
12768;SDS011;6448;48.916;8.990;2022-07-31T02:47:17;1.30;;;1.20;;
12768;SDS011;6448;48.916;8.990;2022-07-31T02:48:21;1.27;;;1.17;;
12768;SDS011;6448;48.916;8.990;2022-07-31T02:49:24;1.20;;;1.10;;
12768;SDS011;6448;48.916;8.990;2022-07-31T02:50:26;1.08;;;1.08;;
12768;SDS011;6448;48.916;8.990;2022-07-31T02:51:27;1.20;;;1.10;;
12768;SDS011;6448;48.916;8.990;2022-07-31T02:52:30;1.27;;;1.17;;
12768;SDS011;6448;48.916;8.990;2022-07-31T02:53:32;1.40;;;1.20;;
12768;SDS011;6448;48.916;8.990;2022-07-31T02:54:36;1.40;;;1.30;;
12768;SDS011;6448;48.916;8.990;2022-07-31T02:55:38;1.10;;;1.10;;
12768;SDS011;6448;48.916;8.990;2022-07-31T02:56:42;1.48;;;1.30;;
12768;SDS011;6448;48.916;8.990;2022-07-31T02:57:45;1.23;;;1.13;;
12768;SDS011;6448;48.916;8.990;2022-07-31T02:58:48;1.20;;;1.10;;
12768;SDS011;6448;48.916;8.990;2022-07-31T02:59:55;1.40;;;1.30;;
12768;SDS011;6448;48.916;8.990;2022-07-31T03:01:00;1.30;;;1.20;;
12768;SDS011;6448;48.916;8.990;2022-07-31T03:02:03;1.30;;;1.20;;
12768;SDS011;6448;48.916;8.990;2022-07-31T03:03:12;1.10;;;1.10;;
12768;SDS011;6448;48.916;8.990;2022-07-31T03:04:14;1.50;;;1.40;;
12768;SDS011;6448;48.916;8.990;2022-07-31T03:05:17;1.30;;;1.20;;
12768;SDS011;6448;48.916;8.990;2022-07-31T03:06:19;1.40;;;1.30;;
12768;SDS011;6448;48.916;8.990;2022-07-31T03:07:21;1.40;;;1.30;;
12768;SDS011;6448;48.916;8.990;2022-07-31T03:08:22;1.23;;;1.13;;
12768;SDS011;6448;48.916;8.990;2022-07-31T03:09:27;1.52;;;1.23;;
12768;SDS011;6448;48.916;8.990;2022-07-31T03:10:48;1.13;;;1.10;;
12768;SDS011;6448;48.916;8.990;2022-07-31T03:11:50;1.30;;;1.20;;
12768;SDS011;6448;48.916;8.990;2022-07-31T03:12:51;1.30;;;1.20;;
12768;SDS011;6448;48.916;8.990;2022-07-31T03:13:56;1.40;;;1.30;;
12768;SDS011;6448;48.916;8.990;2022-07-31T03:14:59;1.30;;;1.20;;
12768;SDS011;6448;48.916;8.990;2022-07-31T03:16:03;1.27;;;1.17;;
12768;SDS011;6448;48.916;8.990;2022-07-31T03:17:06;1.35;;;1.25;;
12768;SDS011;6448;48.916;8.990;2022-07-31T03:18:08;1.10;;;1.10;;
12768;SDS011;6448;48.916;8.990;2022-07-31T03:19:14;1.10;;;1.10;;
12768;SDS011;6448;48.916;8.990;2022-07-31T03:20:16;1.40;;;1.30;;
12768;SDS011;6448;48.916;8.990;2022-07-31T03:21:18;1.20;;;1.10;;
12768;SDS011;6448;48.916;8.990;2022-07-31T03:22:22;1.40;;;1.30;;
12768;SDS011;6448;48.916;8.990;2022-07-31T03:23:24;1.45;;;1.30;;
12768;SDS011;6448;48.916;8.990;2022-07-31T03:24:38;1.20;;;1.10;;
12768;SDS011;6448;48.916;8.990;2022-07-31T03:25:39;1.23;;;1.20;;
12768;SDS011;6448;48.916;8.990;2022-07-31T03:26:41;1.35;;;1.25;;
12768;SDS011;6448;48.916;8.990;2022-07-31T03:27:43;1.77;;;1.30;;
12768;SDS011;6448;48.916;8.990;2022-07-31T03:28:46;2.33;;;1.30;;
12768;SDS011;6448;48.916;8.990;2022-07-31T03:29:48;1.33;;;1.23;;
12768;SDS011;6448;48.916;8.990;2022-07-31T03:30:50;1.40;;;1.30;;
12768;SDS011;6448;48.916;8.990;2022-07-31T03:31:52;1.30;;;1.20;;
12768;SDS011;6448;48.916;8.990;2022-07-31T03:32:55;1.40;;;1.30;;
12768;SDS011;6448;48.916;8.990;2022-07-31T03:33:56;1.17;;;1.17;;
12768;SDS011;6448;48.916;8.990;2022-07-31T03:34:59;1.30;;;1.20;;
12768;SDS011;6448;48.916;8.990;2022-07-31T03:36:00;1.20;;;1.10;;
12768;SDS011;6448;48.916;8.990;2022-07-31T03:37:03;1.20;;;1.10;;
12768;SDS011;6448;48.916;8.990;2022-07-31T03:38:05;1.30;;;1.20;;
12768;SDS011;6448;48.916;8.990;2022-07-31T03:39:07;1.40;;;1.30;;
12768;SDS011;6448;48.916;8.990;2022-07-31T03:40:18;1.70;;;1.35;;
12768;SDS011;6448;48.916;8.990;2022-07-31T03:41:19;1.30;;;1.20;;
12768;SDS011;6448;48.916;8.990;2022-07-31T03:42:21;1.40;;;1.30;;
12768;SDS011;6448;48.916;8.990;2022-07-31T03:43:23;2.10;;;1.30;;
12768;SDS011;6448;48.916;8.990;2022-07-31T03:44:26;1.37;;;1.27;;
12768;SDS011;6448;48.916;8.990;2022-07-31T03:45:28;1.30;;;1.20;;
12768;SDS011;6448;48.916;8.990;2022-07-31T03:46:31;1.48;;;1.38;;
12768;SDS011;6448;48.916;8.990;2022-07-31T03:47:33;1.30;;;1.20;;
12768;SDS011;6448;48.916;8.990;2022-07-31T03:48:35;1.50;;;1.40;;
12768;SDS011;6448;48.916;8.990;2022-07-31T03:49:37;1.40;;;1.30;;
12768;SDS011;6448;48.916;8.990;2022-07-31T03:50:41;1.40;;;1.30;;
12768;SDS011;6448;48.916;8.990;2022-07-31T03:51:43;1.60;;;1.40;;
12768;SDS011;6448;48.916;8.990;2022-07-31T03:52:45;1.45;;;1.35;;
12768;SDS011;6448;48.916;8.990;2022-07-31T03:53:46;1.30;;;1.20;;
12768;SDS011;6448;48.916;8.990;2022-07-31T03:55:18;1.40;;;1.30;;
12768;SDS011;6448;48.916;8.990;2022-07-31T03:56:20;1.35;;;1.25;;
12768;SDS011;6448;48.916;8.990;2022-07-31T03:57:22;1.50;;;1.40;;
12768;SDS011;6448;48.916;8.990;2022-07-31T03:58:26;1.40;;;1.30;;
12768;SDS011;6448;48.916;8.990;2022-07-31T03:59:28;1.30;;;1.20;;
12768;SDS011;6448;48.916;8.990;2022-07-31T04:00:30;1.40;;;1.30;;
12768;SDS011;6448;48.916;8.990;2022-07-31T04:01:34;1.30;;;1.20;;
12768;SDS011;6448;48.916;8.990;2022-07-31T04:02:37;1.30;;;1.20;;
12768;SDS011;6448;48.916;8.990;2022-07-31T04:03:56;1.40;;;1.30;;
12768;SDS011;6448;48.916;8.990;2022-07-31T04:05:04;1.50;;;1.40;;
12768;SDS011;6448;48.916;8.990;2022-07-31T04:06:07;1.50;;;1.40;;
12768;SDS011;6448;48.916;8.990;2022-07-31T04:07:09;1.40;;;1.30;;
12768;SDS011;6448;48.916;8.990;2022-07-31T04:08:10;1.47;;;1.20;;
12768;SDS011;6448;48.916;8.990;2022-07-31T04:09:12;1.40;;;1.30;;
12768;SDS011;6448;48.916;8.990;2022-07-31T04:10:13;1.35;;;1.25;;
12768;SDS011;6448;48.916;8.990;2022-07-31T04:11:15;1.40;;;1.30;;
12768;SDS011;6448;48.916;8.990;2022-07-31T04:12:16;1.30;;;1.20;;
12768;SDS011;6448;48.916;8.990;2022-07-31T04:13:18;1.50;;;1.40;;
12768;SDS011;6448;48.916;8.990;2022-07-31T04:14:20;1.50;;;1.40;;
12768;SDS011;6448;48.916;8.990;2022-07-31T04:15:22;1.50;;;1.40;;
12768;SDS011;6448;48.916;8.990;2022-07-31T04:16:23;1.42;;;1.33;;
12768;SDS011;6448;48.916;8.990;2022-07-31T04:17:25;1.40;;;1.30;;
12768;SDS011;6448;48.916;8.990;2022-07-31T04:18:26;1.40;;;1.30;;
12768;SDS011;6448;48.916;8.990;2022-07-31T04:19:28;1.30;;;1.20;;
12768;SDS011;6448;48.916;8.990;2022-07-31T04:20:30;1.50;;;1.30;;
12768;SDS011;6448;48.916;8.990;2022-07-31T04:21:33;1.38;;;1.27;;
12768;SDS011;6448;48.916;8.990;2022-07-31T04:22:34;1.40;;;1.30;;
12768;SDS011;6448;48.916;8.990;2022-07-31T04:23:39;1.40;;;1.30;;
12768;SDS011;6448;48.916;8.990;2022-07-31T04:24:58;2.00;;;1.40;;
12768;SDS011;6448;48.916;8.990;2022-07-31T04:26:27;1.83;;;1.25;;
12768;SDS011;6448;48.916;8.990;2022-07-31T04:27:33;1.70;;;1.50;;
12768;SDS011;6448;48.916;8.990;2022-07-31T04:28:35;1.40;;;1.30;;
12768;SDS011;6448;48.916;8.990;2022-07-31T04:29:36;1.40;;;1.30;;
12768;SDS011;6448;48.916;8.990;2022-07-31T04:30:38;1.50;;;1.40;;
12768;SDS011;6448;48.916;8.990;2022-07-31T04:31:41;1.40;;;1.30;;
12768;SDS011;6448;48.916;8.990;2022-07-31T04:32:45;1.35;;;1.25;;
12768;SDS011;6448;48.916;8.990;2022-07-31T04:33:51;1.40;;;1.30;;
12768;SDS011;6448;48.916;8.990;2022-07-31T04:34:53;1.40;;;1.30;;
12768;SDS011;6448;48.916;8.990;2022-07-31T04:35:55;1.40;;;1.30;;
12768;SDS011;6448;48.916;8.990;2022-07-31T04:36:57;1.85;;;1.35;;
12768;SDS011;6448;48.916;8.990;2022-07-31T04:37:58;1.40;;;1.27;;
12768;SDS011;6448;48.916;8.990;2022-07-31T04:39:01;1.50;;;1.40;;
12768;SDS011;6448;48.916;8.990;2022-07-31T04:40:04;1.63;;;1.42;;
12768;SDS011;6448;48.916;8.990;2022-07-31T04:41:05;1.55;;;1.45;;
12768;SDS011;6448;48.916;8.990;2022-07-31T04:42:07;1.50;;;1.40;;
12768;SDS011;6448;48.916;8.990;2022-07-31T04:43:08;1.50;;;1.40;;
12768;SDS011;6448;48.916;8.990;2022-07-31T04:44:11;1.23;;;1.20;;
12768;SDS011;6448;48.916;8.990;2022-07-31T04:45:24;1.40;;;1.30;;
12768;SDS011;6448;48.916;8.990;2022-07-31T04:46:26;1.40;;;1.30;;
12768;SDS011;6448;48.916;8.990;2022-07-31T04:47:29;1.45;;;1.35;;
12768;SDS011;6448;48.916;8.990;2022-07-31T04:48:31;1.42;;;1.33;;
12768;SDS011;6448;48.916;8.990;2022-07-31T04:49:32;1.33;;;1.23;;
12768;SDS011;6448;48.916;8.990;2022-07-31T04:50:36;1.60;;;1.50;;
12768;SDS011;6448;48.916;8.990;2022-07-31T04:51:37;1.40;;;1.30;;
12768;SDS011;6448;48.916;8.990;2022-07-31T04:52:40;1.50;;;1.40;;
12768;SDS011;6448;48.916;8.990;2022-07-31T04:53:45;1.90;;;1.30;;
12768;SDS011;6448;48.916;8.990;2022-07-31T04:54:47;2.05;;;1.60;;
12768;SDS011;6448;48.916;8.990;2022-07-31T04:55:48;1.90;;;1.40;;
12768;SDS011;6448;48.916;8.990;2022-07-31T04:57:04;1.50;;;1.40;;
12768;SDS011;6448;48.916;8.990;2022-07-31T04:58:07;1.48;;;1.38;;
12768;SDS011;6448;48.916;8.990;2022-07-31T04:59:10;1.50;;;1.40;;
12768;SDS011;6448;48.916;8.990;2022-07-31T05:00:16;1.40;;;1.30;;
12768;SDS011;6448;48.916;8.990;2022-07-31T05:01:17;1.55;;;1.45;;
12768;SDS011;6448;48.916;8.990;2022-07-31T05:02:19;1.50;;;1.40;;
12768;SDS011;6448;48.916;8.990;2022-07-31T05:03:21;1.42;;;1.33;;
12768;SDS011;6448;48.916;8.990;2022-07-31T05:04:24;1.45;;;1.35;;
12768;SDS011;6448;48.916;8.990;2022-07-31T05:05:26;1.45;;;1.35;;
12768;SDS011;6448;48.916;8.990;2022-07-31T05:06:34;1.42;;;1.33;;
12768;SDS011;6448;48.916;8.990;2022-07-31T05:07:37;1.50;;;1.40;;
12768;SDS011;6448;48.916;8.990;2022-07-31T05:08:45;1.60;;;1.50;;
12768;SDS011;6448;48.916;8.990;2022-07-31T05:09:47;2.03;;;1.33;;
12768;SDS011;6448;48.916;8.990;2022-07-31T05:10:49;1.40;;;1.30;;
12768;SDS011;6448;48.916;8.990;2022-07-31T05:12:09;1.52;;;1.42;;
12768;SDS011;6448;48.916;8.990;2022-07-31T05:13:11;1.65;;;1.40;;
12768;SDS011;6448;48.916;8.990;2022-07-31T05:14:12;1.40;;;1.30;;
12768;SDS011;6448;48.916;8.990;2022-07-31T05:15:15;1.50;;;1.40;;
12768;SDS011;6448;48.916;8.990;2022-07-31T05:16:17;1.30;;;1.20;;
12768;SDS011;6448;48.916;8.990;2022-07-31T05:17:20;1.65;;;1.48;;
12768;SDS011;6448;48.916;8.990;2022-07-31T05:18:39;1.42;;;1.33;;
12768;SDS011;6448;48.916;8.990;2022-07-31T05:20:08;1.58;;;1.48;;
12768;SDS011;6448;48.916;8.990;2022-07-31T05:21:33;1.50;;;1.40;;
12768;SDS011;6448;48.916;8.990;2022-07-31T05:22:56;1.52;;;1.42;;
12768;SDS011;6448;48.916;8.990;2022-07-31T05:24:11;1.40;;;1.30;;
12768;SDS011;6448;48.916;8.990;2022-07-31T05:25:29;1.45;;;1.35;;
12768;SDS011;6448;48.916;8.990;2022-07-31T05:26:31;1.60;;;1.45;;
12768;SDS011;6448;48.916;8.990;2022-07-31T05:27:32;1.50;;;1.40;;
12768;SDS011;6448;48.916;8.990;2022-07-31T05:28:35;1.60;;;1.50;;
12768;SDS011;6448;48.916;8.990;2022-07-31T05:29:36;1.40;;;1.30;;
12768;SDS011;6448;48.916;8.990;2022-07-31T05:30:38;1.40;;;1.30;;
12768;SDS011;6448;48.916;8.990;2022-07-31T05:31:39;1.38;;;1.27;;
12768;SDS011;6448;48.916;8.990;2022-07-31T05:32:41;1.60;;;1.50;;
12768;SDS011;6448;48.916;8.990;2022-07-31T05:33:42;1.75;;;1.65;;
12768;SDS011;6448;48.916;8.990;2022-07-31T05:34:44;1.55;;;1.40;;
12768;SDS011;6448;48.916;8.990;2022-07-31T05:35:45;1.50;;;1.40;;
12768;SDS011;6448;48.916;8.990;2022-07-31T05:36:47;1.45;;;1.33;;
12768;SDS011;6448;48.916;8.990;2022-07-31T05:37:49;1.50;;;1.40;;
12768;SDS011;6448;48.916;8.990;2022-07-31T05:38:52;1.60;;;1.50;;
12768;SDS011;6448;48.916;8.990;2022-07-31T05:40:08;1.35;;;1.25;;
12768;SDS011;6448;48.916;8.990;2022-07-31T05:41:29;1.60;;;1.50;;
12768;SDS011;6448;48.916;8.990;2022-07-31T05:42:51;1.60;;;1.50;;
12768;SDS011;6448;48.916;8.990;2022-07-31T05:44:20;1.88;;;1.40;;
12768;SDS011;6448;48.916;8.990;2022-07-31T05:45:23;1.50;;;1.40;;
12768;SDS011;6448;48.916;8.990;2022-07-31T05:46:24;1.60;;;1.50;;
12768;SDS011;6448;48.916;8.990;2022-07-31T05:47:26;1.77;;;1.60;;
12768;SDS011;6448;48.916;8.990;2022-07-31T05:48:28;1.50;;;1.40;;
12768;SDS011;6448;48.916;8.990;2022-07-31T05:49:30;1.50;;;1.40;;
12768;SDS011;6448;48.916;8.990;2022-07-31T05:50:33;2.47;;;1.40;;
12768;SDS011;6448;48.916;8.990;2022-07-31T05:51:34;1.60;;;1.50;;
12768;SDS011;6448;48.916;8.990;2022-07-31T05:52:36;1.58;;;1.48;;
12768;SDS011;6448;48.916;8.990;2022-07-31T05:53:49;1.42;;;1.33;;
12768;SDS011;6448;48.916;8.990;2022-07-31T05:55:11;1.40;;;1.30;;
12768;SDS011;6448;48.916;8.990;2022-07-31T05:56:45;1.60;;;1.50;;
12768;SDS011;6448;48.916;8.990;2022-07-31T05:57:49;1.58;;;1.48;;
12768;SDS011;6448;48.916;8.990;2022-07-31T05:58:50;1.50;;;1.40;;
12768;SDS011;6448;48.916;8.990;2022-07-31T05:59:52;2.10;;;1.48;;
12768;SDS011;6448;48.916;8.990;2022-07-31T06:00:53;1.40;;;1.30;;
12768;SDS011;6448;48.916;8.990;2022-07-31T06:01:55;1.80;;;1.50;;
12768;SDS011;6448;48.916;8.990;2022-07-31T06:02:57;1.60;;;1.50;;
12768;SDS011;6448;48.916;8.990;2022-07-31T06:04:22;1.48;;;1.38;;
12768;SDS011;6448;48.916;8.990;2022-07-31T06:05:24;1.50;;;1.40;;
12768;SDS011;6448;48.916;8.990;2022-07-31T06:06:25;1.60;;;1.50;;
12768;SDS011;6448;48.916;8.990;2022-07-31T06:07:27;1.70;;;1.60;;
12768;SDS011;6448;48.916;8.990;2022-07-31T06:08:27;1.65;;;1.40;;
12768;SDS011;6448;48.916;8.990;2022-07-31T06:09:30;1.50;;;1.40;;
12768;SDS011;6448;48.916;8.990;2022-07-31T06:10:32;1.40;;;1.30;;
12768;SDS011;6448;48.916;8.990;2022-07-31T06:11:34;1.45;;;1.35;;
12768;SDS011;6448;48.916;8.990;2022-07-31T06:12:36;1.90;;;1.40;;
12768;SDS011;6448;48.916;8.990;2022-07-31T06:13:37;1.63;;;1.52;;
12768;SDS011;6448;48.916;8.990;2022-07-31T06:14:50;1.30;;;1.20;;
12768;SDS011;6448;48.916;8.990;2022-07-31T06:16:03;1.50;;;1.40;;
12768;SDS011;6448;48.916;8.990;2022-07-31T06:17:11;1.77;;;1.48;;
12768;SDS011;6448;48.916;8.990;2022-07-31T06:18:13;1.50;;;1.40;;
12768;SDS011;6448;48.916;8.990;2022-07-31T06:19:15;1.40;;;1.30;;
12768;SDS011;6448;48.916;8.990;2022-07-31T06:20:16;1.50;;;1.40;;
12768;SDS011;6448;48.916;8.990;2022-07-31T06:21:18;1.50;;;1.30;;
12768;SDS011;6448;48.916;8.990;2022-07-31T06:22:19;1.87;;;1.30;;
12768;SDS011;6448;48.916;8.990;2022-07-31T06:23:21;1.50;;;1.40;;
12768;SDS011;6448;48.916;8.990;2022-07-31T06:24:25;1.70;;;1.38;;
12768;SDS011;6448;48.916;8.990;2022-07-31T06:25:27;1.40;;;1.30;;
12768;SDS011;6448;48.916;8.990;2022-07-31T06:26:29;1.50;;;1.40;;
12768;SDS011;6448;48.916;8.990;2022-07-31T06:27:31;1.50;;;1.40;;
12768;SDS011;6448;48.916;8.990;2022-07-31T06:28:32;2.40;;;1.40;;
12768;SDS011;6448;48.916;8.990;2022-07-31T06:29:33;1.60;;;1.33;;
12768;SDS011;6448;48.916;8.990;2022-07-31T06:30:34;1.50;;;1.40;;
12768;SDS011;6448;48.916;8.990;2022-07-31T06:31:36;1.45;;;1.35;;
12768;SDS011;6448;48.916;8.990;2022-07-31T06:32:37;1.50;;;1.40;;
12768;SDS011;6448;48.916;8.990;2022-07-31T06:33:39;1.50;;;1.40;;
12768;SDS011;6448;48.916;8.990;2022-07-31T06:34:40;1.58;;;1.45;;